sensor_id;sensor_type;location;lat;lon;timestamp;P1;durP1;ratioP1;P2;durP2;ratioP2
78183;SDS011;67442;44.570;18.610;2024-01-10T00:00:23;355.13;;;107.18;;
78183;SDS011;67442;44.570;18.610;2024-01-10T00:02:51;305.63;;;85.18;;
78183;SDS011;67442;44.570;18.610;2024-01-10T00:05:18;298.83;;;88.40;;
78183;SDS011;67442;44.570;18.610;2024-01-10T00:07:46;346.27;;;96.32;;
78183;SDS011;67442;44.570;18.610;2024-01-10T00:10:14;341.63;;;95.15;;
78183;SDS011;67442;44.570;18.610;2024-01-10T00:12:42;315.08;;;91.18;;
78183;SDS011;67442;44.570;18.610;2024-01-10T00:15:10;370.60;;;98.43;;
78183;SDS011;67442;44.570;18.610;2024-01-10T00:17:39;277.65;;;80.78;;
78183;SDS011;67442;44.570;18.610;2024-01-10T00:20:07;269.88;;;73.75;;
78183;SDS011;67442;44.570;18.610;2024-01-10T00:22:36;217.13;;;62.30;;
78183;SDS011;67442;44.570;18.610;2024-01-10T00:25:07;320.50;;;91.40;;
78183;SDS011;67442;44.570;18.610;2024-01-10T00:27:36;253.68;;;76.13;;
78183;SDS011;67442;44.570;18.610;2024-01-10T00:30:04;233.85;;;69.85;;
78183;SDS011;67442;44.570;18.610;2024-01-10T00:32:34;321.75;;;91.03;;
78183;SDS011;67442;44.570;18.610;2024-01-10T00:35:02;284.23;;;83.68;;
78183;SDS011;67442;44.570;18.610;2024-01-10T00:37:30;255.35;;;76.05;;
78183;SDS011;67442;44.570;18.610;2024-01-10T00:39:58;289.38;;;88.20;;
78183;SDS011;67442;44.570;18.610;2024-01-10T00:42:25;229.32;;;70.05;;
78183;SDS011;67442;44.570;18.610;2024-01-10T00:44:56;254.35;;;76.05;;
78183;SDS011;67442;44.570;18.610;2024-01-10T00:47:24;240.55;;;69.78;;
78183;SDS011;67442;44.570;18.610;2024-01-10T00:49:51;228.15;;;69.68;;
78183;SDS011;67442;44.570;18.610;2024-01-10T00:52:23;204.73;;;61.78;;
78183;SDS011;67442;44.570;18.610;2024-01-10T00:54:51;260.13;;;74.38;;
78183;SDS011;67442;44.570;18.610;2024-01-10T00:57:22;235.27;;;69.57;;
78183;SDS011;67442;44.570;18.610;2024-01-10T00:59:49;255.00;;;71.13;;
78183;SDS011;67442;44.570;18.610;2024-01-10T01:02:16;314.23;;;87.30;;
78183;SDS011;67442;44.570;18.610;2024-01-10T01:04:43;292.15;;;87.47;;
78183;SDS011;67442;44.570;18.610;2024-01-10T01:07:10;243.23;;;68.35;;
78183;SDS011;67442;44.570;18.610;2024-01-10T01:09:42;207.98;;;65.38;;
78183;SDS011;67442;44.570;18.610;2024-01-10T01:12:09;189.25;;;58.92;;
78183;SDS011;67442;44.570;18.610;2024-01-10T01:14:36;172.00;;;52.22;;
78183;SDS011;67442;44.570;18.610;2024-01-10T01:17:04;172.10;;;54.03;;
78183;SDS011;67442;44.570;18.610;2024-01-10T01:19:32;212.70;;;62.58;;
78183;SDS011;67442;44.570;18.610;2024-01-10T01:21:59;236.57;;;68.85;;
78183;SDS011;67442;44.570;18.610;2024-01-10T01:24:26;180.05;;;53.60;;
78183;SDS011;67442;44.570;18.610;2024-01-10T01:26:54;147.40;;;47.25;;
78183;SDS011;67442;44.570;18.610;2024-01-10T01:29:26;215.68;;;63.38;;
78183;SDS011;67442;44.570;18.610;2024-01-10T01:31:54;147.68;;;43.45;;
78183;SDS011;67442;44.570;18.610;2024-01-10T01:34:26;162.20;;;48.78;;
78183;SDS011;67442;44.570;18.610;2024-01-10T01:36:53;144.43;;;44.92;;
78183;SDS011;67442;44.570;18.610;2024-01-10T01:39:20;155.63;;;46.38;;
78183;SDS011;67442;44.570;18.610;2024-01-10T01:41:48;233.90;;;64.15;;
78183;SDS011;67442;44.570;18.610;2024-01-10T01:44:16;196.30;;;57.75;;
78183;SDS011;67442;44.570;18.610;2024-01-10T01:46:47;215.98;;;60.35;;
78183;SDS011;67442;44.570;18.610;2024-01-10T01:49:15;208.05;;;65.78;;
78183;SDS011;67442;44.570;18.610;2024-01-10T01:51:43;191.40;;;57.42;;
78183;SDS011;67442;44.570;18.610;2024-01-10T01:54:11;175.15;;;56.72;;
78183;SDS011;67442;44.570;18.610;2024-01-10T01:56:39;167.80;;;51.03;;
78183;SDS011;67442;44.570;18.610;2024-01-10T01:59:09;178.00;;;55.90;;
78183;SDS011;67442;44.570;18.610;2024-01-10T02:01:39;224.30;;;65.40;;
78183;SDS011;67442;44.570;18.610;2024-01-10T02:04:06;150.82;;;46.72;;
78183;SDS011;67442;44.570;18.610;2024-01-10T02:06:34;152.52;;;51.47;;
78183;SDS011;67442;44.570;18.610;2024-01-10T02:09:02;142.13;;;45.70;;
78183;SDS011;67442;44.570;18.610;2024-01-10T02:11:32;204.40;;;62.83;;
78183;SDS011;67442;44.570;18.610;2024-01-10T02:14:00;187.38;;;55.35;;
78183;SDS011;67442;44.570;18.610;2024-01-10T02:16:28;204.90;;;58.10;;
78183;SDS011;67442;44.570;18.610;2024-01-10T02:18:55;155.85;;;50.97;;
78183;SDS011;67442;44.570;18.610;2024-01-10T02:21:23;151.75;;;45.67;;
78183;SDS011;67442;44.570;18.610;2024-01-10T02:23:51;140.20;;;46.30;;
78183;SDS011;67442;44.570;18.610;2024-01-10T02:26:18;145.38;;;46.33;;
78183;SDS011;67442;44.570;18.610;2024-01-10T02:28:46;153.07;;;46.58;;
78183;SDS011;67442;44.570;18.610;2024-01-10T02:31:15;169.90;;;50.60;;
78183;SDS011;67442;44.570;18.610;2024-01-10T02:33:47;161.07;;;49.60;;
78183;SDS011;67442;44.570;18.610;2024-01-10T02:36:18;271.38;;;77.43;;
78183;SDS011;67442;44.570;18.610;2024-01-10T02:38:46;254.45;;;73.82;;
78183;SDS011;67442;44.570;18.610;2024-01-10T02:41:14;218.77;;;61.92;;
78183;SDS011;67442;44.570;18.610;2024-01-10T02:43:42;213.27;;;67.65;;
78183;SDS011;67442;44.570;18.610;2024-01-10T02:46:09;142.02;;;45.53;;
78183;SDS011;67442;44.570;18.610;2024-01-10T02:48:37;125.70;;;41.03;;
78183;SDS011;67442;44.570;18.610;2024-01-10T02:51:05;618.70;;;178.05;;
78183;SDS011;67442;44.570;18.610;2024-01-10T02:53:32;167.07;;;54.03;;
78183;SDS011;67442;44.570;18.610;2024-01-10T02:56:00;186.13;;;55.05;;
78183;SDS011;67442;44.570;18.610;2024-01-10T02:58:28;149.70;;;44.22;;
78183;SDS011;67442;44.570;18.610;2024-01-10T03:00:57;145.75;;;44.85;;
78183;SDS011;67442;44.570;18.610;2024-01-10T03:03:24;127.65;;;38.72;;
78183;SDS011;67442;44.570;18.610;2024-01-10T03:05:52;177.93;;;48.60;;
78183;SDS011;67442;44.570;18.610;2024-01-10T03:08:20;108.00;;;35.42;;
78183;SDS011;67442;44.570;18.610;2024-01-10T03:10:48;98.30;;;29.02;;
78183;SDS011;67442;44.570;18.610;2024-01-10T03:13:15;110.18;;;31.40;;
78183;SDS011;67442;44.570;18.610;2024-01-10T03:15:46;112.95;;;32.22;;
78183;SDS011;67442;44.570;18.610;2024-01-10T03:18:14;113.25;;;35.05;;
78183;SDS011;67442;44.570;18.610;2024-01-10T03:20:45;138.55;;;40.05;;
78183;SDS011;67442;44.570;18.610;2024-01-10T03:23:12;101.95;;;31.55;;
78183;SDS011;67442;44.570;18.610;2024-01-10T03:25:43;94.80;;;29.65;;
78183;SDS011;67442;44.570;18.610;2024-01-10T03:28:15;111.63;;;34.92;;
78183;SDS011;67442;44.570;18.610;2024-01-10T03:30:46;118.60;;;37.58;;
78183;SDS011;67442;44.570;18.610;2024-01-10T03:33:14;108.68;;;32.03;;
78183;SDS011;67442;44.570;18.610;2024-01-10T03:35:42;98.75;;;30.27;;
78183;SDS011;67442;44.570;18.610;2024-01-10T03:38:09;90.97;;;29.40;;
78183;SDS011;67442;44.570;18.610;2024-01-10T03:40:37;101.32;;;32.25;;
78183;SDS011;67442;44.570;18.610;2024-01-10T03:43:08;119.03;;;34.85;;
78183;SDS011;67442;44.570;18.610;2024-01-10T03:45:35;125.95;;;38.15;;
78183;SDS011;67442;44.570;18.610;2024-01-10T03:48:03;125.00;;;37.40;;
78183;SDS011;67442;44.570;18.610;2024-01-10T03:50:33;145.45;;;43.35;;
78183;SDS011;67442;44.570;18.610;2024-01-10T03:53:04;119.18;;;37.47;;
78183;SDS011;67442;44.570;18.610;2024-01-10T03:55:32;119.22;;;36.60;;
78183;SDS011;67442;44.570;18.610;2024-01-10T03:58:00;125.50;;;36.17;;
78183;SDS011;67442;44.570;18.610;2024-01-10T04:00:31;121.63;;;37.63;;
78183;SDS011;67442;44.570;18.610;2024-01-10T04:02:58;105.10;;;34.72;;
78183;SDS011;67442;44.570;18.610;2024-01-10T04:05:30;113.15;;;35.47;;
78183;SDS011;67442;44.570;18.610;2024-01-10T04:08:02;122.07;;;39.58;;
78183;SDS011;67442;44.570;18.610;2024-01-10T04:10:32;113.85;;;35.08;;
78183;SDS011;67442;44.570;18.610;2024-01-10T04:12:59;121.97;;;37.78;;
78183;SDS011;67442;44.570;18.610;2024-01-10T04:15:26;115.05;;;36.10;;
78183;SDS011;67442;44.570;18.610;2024-01-10T04:17:54;110.35;;;33.67;;
78183;SDS011;67442;44.570;18.610;2024-01-10T04:20:22;108.45;;;32.72;;
78183;SDS011;67442;44.570;18.610;2024-01-10T04:22:49;95.47;;;28.75;;
78183;SDS011;67442;44.570;18.610;2024-01-10T04:25:21;109.88;;;34.80;;
78183;SDS011;67442;44.570;18.610;2024-01-10T04:27:52;118.50;;;34.50;;
78183;SDS011;67442;44.570;18.610;2024-01-10T04:30:21;108.93;;;33.13;;
78183;SDS011;67442;44.570;18.610;2024-01-10T04:32:48;100.70;;;31.63;;
78183;SDS011;67442;44.570;18.610;2024-01-10T04:35:24;93.15;;;28.52;;
78183;SDS011;67442;44.570;18.610;2024-01-10T04:37:58;100.22;;;29.67;;
78183;SDS011;67442;44.570;18.610;2024-01-10T04:40:25;111.78;;;34.05;;
78183;SDS011;67442;44.570;18.610;2024-01-10T04:42:57;103.88;;;30.67;;
78183;SDS011;67442;44.570;18.610;2024-01-10T04:45:25;125.38;;;36.30;;
78183;SDS011;67442;44.570;18.610;2024-01-10T04:47:54;110.05;;;33.30;;
78183;SDS011;67442;44.570;18.610;2024-01-10T04:50:22;108.40;;;31.23;;
78183;SDS011;67442;44.570;18.610;2024-01-10T04:52:49;120.95;;;33.17;;
78183;SDS011;67442;44.570;18.610;2024-01-10T04:55:17;99.75;;;29.80;;
78183;SDS011;67442;44.570;18.610;2024-01-10T04:57:44;95.20;;;26.67;;
78183;SDS011;67442;44.570;18.610;2024-01-10T05:00:12;92.78;;;29.42;;
78183;SDS011;67442;44.570;18.610;2024-01-10T05:02:40;93.43;;;25.15;;
78183;SDS011;67442;44.570;18.610;2024-01-10T05:05:11;97.60;;;28.90;;
78183;SDS011;67442;44.570;18.610;2024-01-10T05:07:40;99.45;;;28.85;;
78183;SDS011;67442;44.570;18.610;2024-01-10T05:10:08;123.63;;;35.45;;
78183;SDS011;67442;44.570;18.610;2024-01-10T05:12:36;116.72;;;33.35;;
78183;SDS011;67442;44.570;18.610;2024-01-10T05:15:04;110.47;;;33.70;;
78183;SDS011;67442;44.570;18.610;2024-01-10T05:17:34;128.68;;;36.92;;
78183;SDS011;67442;44.570;18.610;2024-01-10T05:20:06;123.53;;;36.35;;
78183;SDS011;67442;44.570;18.610;2024-01-10T05:22:35;107.70;;;32.38;;
78183;SDS011;67442;44.570;18.610;2024-01-10T05:25:02;111.97;;;32.03;;
78183;SDS011;67442;44.570;18.610;2024-01-10T05:27:30;104.70;;;29.58;;
78183;SDS011;67442;44.570;18.610;2024-01-10T05:30:01;121.05;;;32.50;;
78183;SDS011;67442;44.570;18.610;2024-01-10T05:32:29;112.30;;;31.33;;
78183;SDS011;67442;44.570;18.610;2024-01-10T05:34:57;112.82;;;33.17;;
78183;SDS011;67442;44.570;18.610;2024-01-10T05:37:28;245.63;;;70.03;;
78183;SDS011;67442;44.570;18.610;2024-01-10T05:39:59;185.35;;;52.65;;
78183;SDS011;67442;44.570;18.610;2024-01-10T05:42:27;189.45;;;55.22;;
78183;SDS011;67442;44.570;18.610;2024-01-10T05:45:00;178.45;;;51.88;;
78183;SDS011;67442;44.570;18.610;2024-01-10T05:47:27;158.93;;;44.92;;
78183;SDS011;67442;44.570;18.610;2024-01-10T05:49:55;136.30;;;39.95;;
78183;SDS011;67442;44.570;18.610;2024-01-10T05:52:26;181.43;;;49.67;;
78183;SDS011;67442;44.570;18.610;2024-01-10T05:54:54;168.48;;;42.20;;
78183;SDS011;67442;44.570;18.610;2024-01-10T05:57:25;231.35;;;61.42;;
78183;SDS011;67442;44.570;18.610;2024-01-10T05:59:53;346.67;;;80.63;;
78183;SDS011;67442;44.570;18.610;2024-01-10T06:02:22;181.68;;;49.17;;
78183;SDS011;67442;44.570;18.610;2024-01-10T06:04:50;203.82;;;56.10;;
78183;SDS011;67442;44.570;18.610;2024-01-10T06:07:22;285.20;;;78.25;;
78183;SDS011;67442;44.570;18.610;2024-01-10T06:09:49;347.35;;;90.80;;
78183;SDS011;67442;44.570;18.610;2024-01-10T06:12:20;348.65;;;93.30;;
78183;SDS011;67442;44.570;18.610;2024-01-10T06:14:53;211.70;;;58.30;;
78183;SDS011;67442;44.570;18.610;2024-01-10T06:17:23;203.48;;;56.15;;
78183;SDS011;67442;44.570;18.610;2024-01-10T06:19:50;492.75;;;130.98;;
78183;SDS011;67442;44.570;18.610;2024-01-10T06:22:18;261.77;;;82.60;;
78183;SDS011;67442;44.570;18.610;2024-01-10T06:24:50;247.73;;;76.47;;
78183;SDS011;67442;44.570;18.610;2024-01-10T06:27:18;223.77;;;66.35;;
78183;SDS011;67442;44.570;18.610;2024-01-10T06:29:45;301.65;;;82.75;;
78183;SDS011;67442;44.570;18.610;2024-01-10T06:32:12;318.65;;;84.75;;
78183;SDS011;67442;44.570;18.610;2024-01-10T06:34:40;328.52;;;94.75;;
78183;SDS011;67442;44.570;18.610;2024-01-10T06:37:08;487.73;;;140.88;;
78183;SDS011;67442;44.570;18.610;2024-01-10T06:39:35;302.80;;;92.68;;
78183;SDS011;67442;44.570;18.610;2024-01-10T06:42:03;248.27;;;75.95;;
78183;SDS011;67442;44.570;18.610;2024-01-10T06:44:50;243.02;;;69.32;;
78183;SDS011;67442;44.570;18.610;2024-01-10T06:47:18;234.85;;;69.13;;
78183;SDS011;67442;44.570;18.610;2024-01-10T06:49:46;198.93;;;61.03;;
78183;SDS011;67442;44.570;18.610;2024-01-10T06:52:13;253.07;;;73.80;;
78183;SDS011;67442;44.570;18.610;2024-01-10T06:54:42;213.43;;;65.95;;
78183;SDS011;67442;44.570;18.610;2024-01-10T06:57:09;231.02;;;69.25;;
78183;SDS011;67442;44.570;18.610;2024-01-10T06:59:37;318.48;;;90.15;;
78183;SDS011;67442;44.570;18.610;2024-01-10T07:02:09;296.92;;;88.05;;
78183;SDS011;67442;44.570;18.610;2024-01-10T07:04:40;274.15;;;85.22;;
78183;SDS011;67442;44.570;18.610;2024-01-10T07:07:08;281.60;;;82.20;;
78183;SDS011;67442;44.570;18.610;2024-01-10T07:09:37;298.45;;;87.30;;
78183;SDS011;67442;44.570;18.610;2024-01-10T07:12:09;265.60;;;83.35;;
78183;SDS011;67442;44.570;18.610;2024-01-10T07:14:36;270.73;;;79.45;;
78183;SDS011;67442;44.570;18.610;2024-01-10T07:17:04;286.23;;;81.53;;
78183;SDS011;67442;44.570;18.610;2024-01-10T07:19:35;260.50;;;80.10;;
78183;SDS011;67442;44.570;18.610;2024-01-10T07:22:03;283.73;;;81.88;;
78183;SDS011;67442;44.570;18.610;2024-01-10T07:24:33;289.65;;;86.00;;
78183;SDS011;67442;44.570;18.610;2024-01-10T07:27:01;304.17;;;90.20;;
78183;SDS011;67442;44.570;18.610;2024-01-10T07:29:29;293.08;;;89.93;;
78183;SDS011;67442;44.570;18.610;2024-01-10T07:31:57;296.65;;;95.35;;
78183;SDS011;67442;44.570;18.610;2024-01-10T07:34:24;346.55;;;114.75;;
78183;SDS011;67442;44.570;18.610;2024-01-10T07:36:56;416.10;;;134.20;;
78183;SDS011;67442;44.570;18.610;2024-01-10T07:39:23;318.42;;;105.45;;
78183;SDS011;67442;44.570;18.610;2024-01-10T07:41:51;324.08;;;104.03;;
78183;SDS011;67442;44.570;18.610;2024-01-10T07:44:23;294.63;;;95.60;;
78183;SDS011;67442;44.570;18.610;2024-01-10T07:46:54;287.15;;;93.57;;
78183;SDS011;67442;44.570;18.610;2024-01-10T07:49:26;290.10;;;95.30;;
78183;SDS011;67442;44.570;18.610;2024-01-10T07:51:58;441.88;;;147.43;;
78183;SDS011;67442;44.570;18.610;2024-01-10T07:54:29;388.83;;;126.68;;
78183;SDS011;67442;44.570;18.610;2024-01-10T07:57:00;314.23;;;105.05;;
78183;SDS011;67442;44.570;18.610;2024-01-10T07:59:28;330.08;;;108.53;;
78183;SDS011;67442;44.570;18.610;2024-01-10T08:01:56;269.13;;;91.55;;
78183;SDS011;67442;44.570;18.610;2024-01-10T08:04:24;228.82;;;76.70;;
78183;SDS011;67442;44.570;18.610;2024-01-10T08:07:11;226.50;;;74.38;;
78183;SDS011;67442;44.570;18.610;2024-01-10T08:09:39;414.02;;;136.70;;
78183;SDS011;67442;44.570;18.610;2024-01-10T08:12:10;326.95;;;105.97;;
78183;SDS011;67442;44.570;18.610;2024-01-10T08:14:37;239.77;;;79.80;;
78183;SDS011;67442;44.570;18.610;2024-01-10T08:17:06;244.70;;;81.22;;
78183;SDS011;67442;44.570;18.610;2024-01-10T08:19:34;239.70;;;83.38;;
78183;SDS011;67442;44.570;18.610;2024-01-10T08:22:05;313.38;;;92.15;;
78183;SDS011;67442;44.570;18.610;2024-01-10T08:24:33;336.20;;;104.00;;
78183;SDS011;67442;44.570;18.610;2024-01-10T08:27:00;335.38;;;101.85;;
78183;SDS011;67442;44.570;18.610;2024-01-10T08:29:29;362.48;;;107.72;;
78183;SDS011;67442;44.570;18.610;2024-01-10T08:31:57;386.27;;;105.05;;
78183;SDS011;67442;44.570;18.610;2024-01-10T08:34:24;401.95;;;96.00;;
78183;SDS011;67442;44.570;18.610;2024-01-10T08:36:54;385.45;;;87.90;;
78183;SDS011;67442;44.570;18.610;2024-01-10T08:39:25;422.45;;;90.63;;
78183;SDS011;67442;44.570;18.610;2024-01-10T08:41:56;402.17;;;86.60;;
78183;SDS011;67442;44.570;18.610;2024-01-10T08:44:24;405.52;;;89.25;;
78183;SDS011;67442;44.570;18.610;2024-01-10T08:46:51;380.02;;;86.57;;
78183;SDS011;67442;44.570;18.610;2024-01-10T08:49:18;394.80;;;84.55;;
78183;SDS011;67442;44.570;18.610;2024-01-10T08:51:46;405.13;;;89.90;;
78183;SDS011;67442;44.570;18.610;2024-01-10T08:54:17;391.02;;;87.20;;
78183;SDS011;67442;44.570;18.610;2024-01-10T08:56:50;386.90;;;81.65;;
78183;SDS011;67442;44.570;18.610;2024-01-10T08:59:18;383.90;;;80.05;;
78183;SDS011;67442;44.570;18.610;2024-01-10T09:01:50;390.15;;;81.68;;
78183;SDS011;67442;44.570;18.610;2024-01-10T09:04:17;348.85;;;79.05;;
78183;SDS011;67442;44.570;18.610;2024-01-10T09:06:45;371.33;;;81.50;;
78183;SDS011;67442;44.570;18.610;2024-01-10T09:09:12;355.42;;;77.22;;
78183;SDS011;67442;44.570;18.610;2024-01-10T09:11:40;351.98;;;76.57;;
78183;SDS011;67442;44.570;18.610;2024-01-10T09:14:07;344.90;;;75.45;;
78183;SDS011;67442;44.570;18.610;2024-01-10T09:16:39;351.95;;;76.93;;
78183;SDS011;67442;44.570;18.610;2024-01-10T09:19:06;356.65;;;85.53;;
78183;SDS011;67442;44.570;18.610;2024-01-10T09:21:35;309.65;;;73.20;;
78183;SDS011;67442;44.570;18.610;2024-01-10T09:24:03;321.50;;;74.65;;
78183;SDS011;67442;44.570;18.610;2024-01-10T09:26:34;310.13;;;74.50;;
78183;SDS011;67442;44.570;18.610;2024-01-10T09:29:02;319.77;;;78.35;;
78183;SDS011;67442;44.570;18.610;2024-01-10T09:31:32;342.98;;;89.07;;
78183;SDS011;67442;44.570;18.610;2024-01-10T09:34:03;352.20;;;79.73;;
78183;SDS011;67442;44.570;18.610;2024-01-10T09:36:31;313.25;;;71.57;;
78183;SDS011;67442;44.570;18.610;2024-01-10T09:38:58;294.13;;;70.20;;
78183;SDS011;67442;44.570;18.610;2024-01-10T09:44:06;299.05;;;71.47;;
78183;SDS011;67442;44.570;18.610;2024-01-10T09:46:35;331.63;;;77.55;;
78183;SDS011;67442;44.570;18.610;2024-01-10T09:49:06;328.98;;;78.90;;
78183;SDS011;67442;44.570;18.610;2024-01-10T09:51:38;295.67;;;73.03;;
78183;SDS011;67442;44.570;18.610;2024-01-10T09:54:05;272.73;;;68.50;;
78183;SDS011;67442;44.570;18.610;2024-01-10T09:56:33;287.88;;;78.90;;
78183;SDS011;67442;44.570;18.610;2024-01-10T09:59:01;296.73;;;73.82;;
78183;SDS011;67442;44.570;18.610;2024-01-10T10:01:38;325.17;;;75.57;;
78183;SDS011;67442;44.570;18.610;2024-01-10T10:04:11;302.97;;;75.10;;
78183;SDS011;67442;44.570;18.610;2024-01-10T10:06:39;298.83;;;73.40;;
78183;SDS011;67442;44.570;18.610;2024-01-10T10:09:07;275.17;;;68.43;;
78183;SDS011;67442;44.570;18.610;2024-01-10T10:11:36;284.52;;;69.45;;
78183;SDS011;67442;44.570;18.610;2024-01-10T10:14:14;244.30;;;65.13;;
78183;SDS011;67442;44.570;18.610;2024-01-10T10:16:41;234.07;;;59.15;;
78183;SDS011;67442;44.570;18.610;2024-01-10T10:19:08;235.77;;;62.08;;
78183;SDS011;67442;44.570;18.610;2024-01-10T10:21:42;222.23;;;58.65;;
78183;SDS011;67442;44.570;18.610;2024-01-10T10:24:14;232.00;;;58.33;;
78183;SDS011;67442;44.570;18.610;2024-01-10T10:26:45;218.93;;;58.25;;
78183;SDS011;67442;44.570;18.610;2024-01-10T10:29:16;211.23;;;55.65;;
78183;SDS011;67442;44.570;18.610;2024-01-10T10:31:46;229.52;;;56.35;;
78183;SDS011;67442;44.570;18.610;2024-01-10T10:34:21;211.30;;;59.03;;
78183;SDS011;67442;44.570;18.610;2024-01-10T10:36:48;222.70;;;57.15;;
78183;SDS011;67442;44.570;18.610;2024-01-10T10:39:16;225.65;;;60.75;;
78183;SDS011;67442;44.570;18.610;2024-01-10T10:41:48;213.70;;;57.55;;
78183;SDS011;67442;44.570;18.610;2024-01-10T10:44:19;220.43;;;57.78;;
78183;SDS011;67442;44.570;18.610;2024-01-10T10:46:49;212.57;;;56.30;;
78183;SDS011;67442;44.570;18.610;2024-01-10T10:49:23;215.88;;;56.90;;
78183;SDS011;67442;44.570;18.610;2024-01-10T10:52:02;203.57;;;55.50;;
78183;SDS011;67442;44.570;18.610;2024-01-10T10:54:36;202.32;;;55.65;;
78183;SDS011;67442;44.570;18.610;2024-01-10T10:57:05;223.88;;;59.53;;
78183;SDS011;67442;44.570;18.610;2024-01-10T10:59:34;206.02;;;54.70;;
78183;SDS011;67442;44.570;18.610;2024-01-10T11:02:04;208.82;;;55.58;;
78183;SDS011;67442;44.570;18.610;2024-01-10T11:04:38;209.48;;;58.08;;
78183;SDS011;67442;44.570;18.610;2024-01-10T11:07:08;210.77;;;58.80;;
78183;SDS011;67442;44.570;18.610;2024-01-10T11:09:35;201.68;;;56.25;;
78183;SDS011;67442;44.570;18.610;2024-01-10T11:23:33;187.95;;;54.30;;
78183;SDS011;67442;44.570;18.610;2024-01-10T11:26:10;188.35;;;54.97;;
78183;SDS011;67442;44.570;18.610;2024-01-10T11:28:39;208.38;;;57.45;;
78183;SDS011;67442;44.570;18.610;2024-01-10T11:31:09;193.73;;;56.55;;
78183;SDS011;67442;44.570;18.610;2024-01-10T11:33:39;217.02;;;60.85;;
78183;SDS011;67442;44.570;18.610;2024-01-10T11:41:12;241.40;;;69.32;;
78183;SDS011;67442;44.570;18.610;2024-01-10T11:46:39;221.02;;;63.53;;
78183;SDS011;67442;44.570;18.610;2024-01-10T11:49:15;207.32;;;63.10;;
78183;SDS011;67442;44.570;18.610;2024-01-10T11:51:45;202.88;;;59.80;;
78183;SDS011;67442;44.570;18.610;2024-01-10T11:54:39;208.60;;;59.90;;
78183;SDS011;67442;44.570;18.610;2024-01-10T11:57:18;179.00;;;55.58;;
78183;SDS011;67442;44.570;18.610;2024-01-10T11:59:52;221.50;;;63.40;;
78183;SDS011;67442;44.570;18.610;2024-01-10T12:02:21;187.38;;;56.10;;
78183;SDS011;67442;44.570;18.610;2024-01-10T12:04:50;177.27;;;53.22;;
78183;SDS011;67442;44.570;18.610;2024-01-10T12:07:21;182.70;;;56.65;;
78183;SDS011;67442;44.570;18.610;2024-01-10T12:09:49;176.15;;;56.60;;
78183;SDS011;67442;44.570;18.610;2024-01-10T12:12:17;178.98;;;55.90;;
78183;SDS011;67442;44.570;18.610;2024-01-10T12:14:45;190.80;;;56.70;;
78183;SDS011;67442;44.570;18.610;2024-01-10T12:17:11;174.82;;;56.15;;
78183;SDS011;67442;44.570;18.610;2024-01-10T12:19:39;181.95;;;56.67;;
78183;SDS011;67442;44.570;18.610;2024-01-10T12:22:10;169.18;;;54.67;;
78183;SDS011;67442;44.570;18.610;2024-01-10T12:24:42;192.50;;;62.45;;
78183;SDS011;67442;44.570;18.610;2024-01-10T12:27:11;182.00;;;59.17;;
78183;SDS011;67442;44.570;18.610;2024-01-10T12:29:41;170.07;;;55.70;;
78183;SDS011;67442;44.570;18.610;2024-01-10T12:32:09;214.13;;;66.55;;
78183;SDS011;67442;44.570;18.610;2024-01-10T12:34:39;178.75;;;58.78;;
78183;SDS011;67442;44.570;18.610;2024-01-10T12:37:10;198.33;;;65.17;;
78183;SDS011;67442;44.570;18.610;2024-01-10T12:39:38;172.52;;;59.33;;
78183;SDS011;67442;44.570;18.610;2024-01-10T12:42:06;180.93;;;59.00;;
78183;SDS011;67442;44.570;18.610;2024-01-10T12:44:37;187.75;;;59.65;;
78183;SDS011;67442;44.570;18.610;2024-01-10T12:47:17;195.65;;;63.30;;
78183;SDS011;67442;44.570;18.610;2024-01-10T12:49:49;176.20;;;54.70;;
78183;SDS011;67442;44.570;18.610;2024-01-10T12:52:17;183.40;;;57.35;;
78183;SDS011;67442;44.570;18.610;2024-01-10T12:54:50;176.82;;;55.47;;
78183;SDS011;67442;44.570;18.610;2024-01-10T12:57:22;189.07;;;56.60;;
78183;SDS011;67442;44.570;18.610;2024-01-10T12:59:50;195.18;;;61.35;;
78183;SDS011;67442;44.570;18.610;2024-01-10T13:02:18;186.68;;;61.03;;
78183;SDS011;67442;44.570;18.610;2024-01-10T13:04:46;173.00;;;58.00;;
78183;SDS011;67442;44.570;18.610;2024-01-10T13:07:15;188.40;;;62.83;;
78183;SDS011;67442;44.570;18.610;2024-01-10T13:09:43;198.05;;;60.78;;
78183;SDS011;67442;44.570;18.610;2024-01-10T13:12:14;203.98;;;63.22;;
78183;SDS011;67442;44.570;18.610;2024-01-10T13:14:45;177.95;;;59.53;;
78183;SDS011;67442;44.570;18.610;2024-01-10T13:17:13;196.38;;;61.13;;
78183;SDS011;67442;44.570;18.610;2024-01-10T13:19:44;216.05;;;65.32;;
78183;SDS011;67442;44.570;18.610;2024-01-10T13:22:33;224.95;;;67.55;;
78183;SDS011;67442;44.570;18.610;2024-01-10T13:25:00;195.30;;;61.13;;
78183;SDS011;67442;44.570;18.610;2024-01-10T13:27:29;206.27;;;65.05;;
78183;SDS011;67442;44.570;18.610;2024-01-10T13:29:57;363.40;;;125.60;;
78183;SDS011;67442;44.570;18.610;2024-01-10T13:32:28;271.52;;;78.88;;
78183;SDS011;67442;44.570;18.610;2024-01-10T13:35:00;195.88;;;59.50;;
78183;SDS011;67442;44.570;18.610;2024-01-10T13:37:28;200.23;;;60.05;;
78183;SDS011;67442;44.570;18.610;2024-01-10T13:39:57;183.45;;;54.25;;
78183;SDS011;67442;44.570;18.610;2024-01-10T13:42:28;189.35;;;54.15;;
78183;SDS011;67442;44.570;18.610;2024-01-10T13:45:00;172.20;;;53.05;;
78183;SDS011;67442;44.570;18.610;2024-01-10T13:47:32;180.10;;;59.35;;
78183;SDS011;67442;44.570;18.610;2024-01-10T13:50:02;144.35;;;48.40;;
78183;SDS011;67442;44.570;18.610;2024-01-10T13:52:31;152.80;;;49.40;;
78183;SDS011;67442;44.570;18.610;2024-01-10T13:54:59;120.47;;;41.65;;
78183;SDS011;67442;44.570;18.610;2024-01-10T13:57:32;133.70;;;43.53;;
78183;SDS011;67442;44.570;18.610;2024-01-10T14:00:05;125.05;;;39.75;;
78183;SDS011;67442;44.570;18.610;2024-01-10T14:02:34;140.93;;;41.78;;
78183;SDS011;67442;44.570;18.610;2024-01-10T14:05:05;139.85;;;44.97;;
78183;SDS011;67442;44.570;18.610;2024-01-10T14:07:35;125.78;;;40.78;;
78183;SDS011;67442;44.570;18.610;2024-01-10T14:10:08;255.93;;;72.75;;
78183;SDS011;67442;44.570;18.610;2024-01-10T14:12:37;184.68;;;56.65;;
78183;SDS011;67442;44.570;18.610;2024-01-10T14:15:04;269.58;;;77.57;;
78183;SDS011;67442;44.570;18.610;2024-01-10T14:17:34;161.93;;;53.10;;
78183;SDS011;67442;44.570;18.610;2024-01-10T14:20:02;210.98;;;64.85;;
78183;SDS011;67442;44.570;18.610;2024-01-10T14:22:37;232.60;;;77.15;;
78183;SDS011;67442;44.570;18.610;2024-01-10T14:25:21;169.13;;;58.03;;
78183;SDS011;67442;44.570;18.610;2024-01-10T14:27:48;173.30;;;58.65;;
78183;SDS011;67442;44.570;18.610;2024-01-10T14:30:20;303.52;;;96.60;;